KLBL/LBL METAR and TAF weather

Enter ICAO airport designator
Station Type Date Time Source
KLBL METAR 2024/07/23 17:56 UTC NOAA

KLBL 231756Z AUTO 00000KT 10SM CLR 28/16 A3016 RMK AO2 SLP186 6//// T02780156 10278 20144 57001 PNO $


Station Type Date Time Source
KLBL Decoded METAR 2024/07/23 17:56 UTC NOAA

Liberal, Liberal Municipal Airport, KS, United States (KLBL) 37-03N 100-58W
Jul 23, 2024 - 01:56 PM EDT / 2024.07.23 1756 UTC
Wind: Calm:0
Visibility: 10 mile(s):0
Sky conditions: clear
Temperature: 82.0 F (27.8 C)
Dew Point: 60.1 F (15.6 C)
Relative Humidity: 47%
Pressure (altimeter): 30.16 in. Hg (1021 hPa)
Pressure tendency: 0.00 inches (0.1 hPa) lower than three hours ago
ob: KLBL 231756Z AUTO 00000KT 10SM CLR 28/16 A3016 RMK AO2 SLP186 6//// T02780156 10278 20144 57001 PNO
cycle: 18

Station Type Date Time Source
KLBL TAF 2024/07/23 18:33 UTC NOAA